Pagrindinis puslapis
METAR-TAF:

METAR-TAF

Oro uostai :

Resistensija, Argentina

platuma: 27-27S, ilguma: 059-03W, Aukštis: 53 m

Dabartinis oras

Ataskaita buvo paskelbta 19 minutes, ne 09:00 UTC
Vėjas 5 kt iš Pietų
Temperatūra 15°C
Drėgmė 77%
Slėgis 1011 hPa
Matomumas 10 km arba daugiau
nėra debesų žemiau 1500 m ir nėra kamuolinių lietaus debesų

METAR: SARE 180900Z 19005KT CAVOK 15/11 Q1011

Laikas: 06:19 (09:19 UTC)

Prognozė

Ataskaita buvo paskelbta 4 valandos ir 19 minutes, ne 05:00 UTC
Prognozė galioja nuo 18 metu 06 UTC su 19 metu 06 UTC
Vėjas 5 kt iš Pietų/Pietvakarių
Matomumas 10 km arba daugiau
nėra debesų žemiau 1500 m ir nėra kamuolinių lietaus debesų

TAF: SARE 180500Z 1806/1906 20005KT CAVOK TX26/1818Z TN12/1810Z

Orai ataskaitas ir orų prognozės (METAR, TAF).

turimą stotys yra geltonos ir raudonos taškus žemėlapyje.

Perkelti pele per norėdami pamatyti stoties vardą.

Tada spustelėkite, norėdami matyti oro stebėjimo ir prognozės.

Norėdami pakeisti žemėlapį: spustelėkite ant žalios mygtukų su juodo kryžiaus žemyn,; žalią mygtuką su brūkšneliu, jei norite nutolinti; arba žalių rodyklių gretimoms žemėlapius.


METAR-TAF: